Tropical Cyclones
[Index]
Main Index Home Page Stock Weather Photos Extreme Storms Discussion Storm News and Storm Chasing Reports Tropical Cyclones / Hurricanes / Typhoons Weather Data and Links Wild Fires / Bushfires Weather Observation Techniques Weather Picture Catalogue Tornado Pictures and Reports Stock Video Footage and DVDs for sale
Season 1989-1990 Tropical Cyclone FELICITY Track Map
Season 1989-1990 Summaries: [BoM-AU] [JTWC-AU] [JTWC-SIO] [JTWC-SPAC] [JTWC-SH]
<<- Previous TC | BoM 1989-1990 Season | Next TC ->>

click for intensity scale information  Lat/long Grid: Show Hide

 Date Labels: Show Hide

Bureau of Meteorology Tropical Cyclone Data

Name: FELICITY
Number: 721 / 198990_02

13 Dec 1989 00:00 UTC to 20 Dec 1989 00:00 UTC

    date/time    lat    long    hPa   cat  kts
1989-12-13 00   11.6   134.0   1001         25          
1989-12-13 06   12.1   134.0    997         25          
1989-12-13 12   12.9   134.2   1000         25          
1989-12-13 18   13.7   134.9   1001         25          
1989-12-14 00   14.4   135.4   1000         25          
1989-12-14 06   14.6   136.1    995    1    25          
1989-12-14 12   15.1   137.0    995    1    30          
1989-12-14 18   15.5   138.0    995    1    40          
1989-12-15 00   15.8   139.2    985    2    50          
1989-12-15 06   16.2   140.5    975    2    65          
1989-12-15 09   16.6   141.0    970    3    75          
1989-12-15 12   16.7   141.5    985    2    65          
1989-12-15 18   17.3   142.5   1000         40          
1989-12-16 00   17.5   144.0   1000         25          
1989-12-16 06   17.3   145.8    999         25          
1989-12-16 12   17.3   147.2    994    1    45          
1989-12-16 18   16.9   148.9    994    1    45          
1989-12-17 00   16.7   149.4    993    1    60          
1989-12-17 06   16.3   150.3    992    1    60          
1989-12-17 12   16.0   151.0    994    1    55          
1989-12-17 18   15.5   152.0    995    1    55          
1989-12-18 00   15.2   153.6    995    1    50          
1989-12-18 06   15.7   155.0    995    1    35          
1989-12-18 12   16.1   156.3    995    1    30          
1989-12-18 18   16.6   157.6    995    1    25          
1989-12-19 00   17.3   158.6    995    1    25          
1989-12-19 06   19.0   159.5    995    1    25          
1989-12-19 12   20.2   160.2    995    1    20          
1989-12-19 18   21.4   160.6    996         20          
1989-12-20 00   22.2   161.0    999         20          
Winds are 10-min average.

Tropical cyclone tracks developed by Michael Bath using data from the Bureau of Meteorology and Google Maps.


[Australian Severe Weather index] [Copyright Notice] [Email Contacts] [Search This Site] [Privacy Policy]
Document: tropical_cyclone_felicity.htm Updated: 4 April 2018